createdAt,value
2018-04-27T13:59:54.754Z,13.40
2018-04-27T14:02:22.477Z,12.90
2018-04-27T14:04:50.131Z,12.20
2018-04-27T14:07:17.786Z,11.60
2018-04-27T14:09:45.496Z,11.00
2018-04-27T14:12:13.159Z,10.90
2018-04-27T14:14:40.794Z,10.80
2018-04-27T14:17:08.471Z,11.10
2018-04-27T14:19:36.119Z,11.50
2018-04-27T14:22:03.803Z,11.80
2018-04-27T14:24:31.452Z,11.60
2018-04-27T14:26:59.111Z,10.80
2018-04-27T14:29:26.737Z,10.60
2018-04-27T14:31:54.351Z,10.50
2018-04-27T14:34:22.053Z,10.40
2018-04-27T14:36:49.667Z,10.20
2018-04-27T14:39:17.300Z,10.00
2018-04-27T14:41:44.957Z,10.10
2018-04-27T14:44:12.567Z,9.80
2018-04-27T14:46:40.244Z,9.80
2018-04-27T14:49:07.857Z,10.00
2018-04-27T14:51:36.351Z,10.20
2018-04-27T14:54:04.033Z,9.90
2018-04-27T14:56:31.672Z,9.70
2018-04-27T14:58:59.310Z,9.80
2018-04-27T15:01:28.336Z,10.00
2018-04-27T15:03:55.955Z,10.30
2018-04-27T15:06:23.575Z,10.10
2018-04-27T15:08:51.991Z,11.00
2018-04-27T15:11:19.890Z,11.00
2018-04-27T15:13:47.573Z,11.90
2018-04-27T15:16:15.229Z,12.00
2018-04-27T15:18:42.847Z,10.80
2018-04-27T15:21:10.487Z,10.00
2018-04-27T15:23:38.159Z,9.90
2018-04-27T15:26:05.796Z,9.90
2018-04-27T15:28:33.447Z,9.90
2018-04-27T15:31:01.083Z,10.10
2018-04-27T15:33:28.692Z,10.20
2018-04-27T15:35:56.351Z,10.20
2018-04-27T15:38:24.047Z,10.00
2018-04-27T15:40:51.975Z,9.60
2018-04-27T15:43:19.614Z,9.70
2018-04-27T15:45:47.283Z,11.10
2018-04-27T15:48:14.943Z,12.60
2018-04-27T15:50:42.600Z,13.60
2018-04-27T15:53:10.253Z,13.20
2018-04-27T15:55:37.868Z,13.60
2018-04-27T15:58:06.303Z,13.80
2018-04-27T16:00:33.939Z,13.70
2018-04-27T16:03:01.571Z,13.80
2018-04-27T16:05:29.267Z,13.50
2018-04-27T16:07:56.902Z,12.20
2018-04-27T16:10:24.539Z,12.10
2018-04-27T16:12:52.218Z,12.60
2018-04-27T16:15:19.863Z,12.70
2018-04-27T16:17:47.516Z,11.30
2018-04-27T16:20:15.171Z,10.60
2018-04-27T16:22:42.832Z,10.10
2018-04-27T16:25:10.473Z,10.40
2018-04-27T16:27:38.887Z,11.50
2018-04-27T16:30:06.534Z,11.50
2018-04-27T16:32:35.125Z,11.80
2018-04-27T16:35:02.767Z,11.70
2018-04-27T16:37:30.416Z,11.40
2018-04-27T16:39:58.073Z,11.30
2018-04-27T16:42:25.733Z,11.60
2018-04-27T16:44:53.358Z,11.40
2018-04-27T16:47:21.743Z,11.80
2018-04-27T16:49:49.422Z,11.80
2018-04-27T16:52:17.035Z,11.10
2018-04-27T16:54:44.671Z,10.70
2018-04-27T16:57:12.371Z,10.80
2018-04-27T16:59:40.019Z,11.00
2018-04-27T17:02:07.671Z,10.60
2018-04-27T17:04:35.361Z,9.90
2018-04-27T17:07:02.999Z,9.60
2018-04-27T17:09:30.720Z,9.40
2018-04-27T17:11:58.323Z,9.20
2018-04-27T17:14:25.958Z,9.10
2018-04-27T17:16:53.606Z,8.90
2018-04-27T17:19:21.274Z,8.40
2018-04-27T17:21:48.936Z,8.20
2018-04-27T17:24:16.611Z,8.10
2018-04-27T17:26:45.055Z,7.80
2018-04-27T17:29:12.707Z,7.80
2018-04-27T17:31:40.387Z,7.70
2018-04-27T17:34:08.039Z,7.70
2018-04-27T17:36:36.480Z,7.50
2018-04-27T17:39:04.144Z,7.40
2018-04-27T17:41:31.792Z,7.30
2018-04-27T17:43:59.439Z,7.30
2018-04-27T17:46:27.845Z,7.10
2018-04-27T17:48:55.764Z,7.00
2018-04-27T17:51:23.399Z,7.00
2018-04-27T17:53:51.011Z,6.90
2018-04-27T17:56:18.629Z,7.10
2018-04-27T17:58:55.064Z,7.30
2018-04-27T18:01:23.743Z,7.20
2018-04-27T18:03:51.404Z,7.60
2018-04-27T18:06:19.061Z,7.70
2018-04-27T18:08:46.706Z,7.70
2018-04-27T18:11:14.363Z,7.70
2018-04-27T18:13:41.996Z,7.80
2018-04-27T18:16:09.651Z,7.80
2018-04-27T18:18:37.304Z,7.80
2018-04-27T18:21:04.976Z,7.80
2018-04-27T18:23:32.635Z,7.80
2018-04-27T18:26:00.268Z,7.70
2018-04-27T18:28:27.899Z,7.60
2018-04-27T18:30:55.521Z,7.60
2018-04-27T18:33:23.188Z,7.50
2018-04-27T18:35:50.817Z,7.40
2018-04-27T18:38:18.451Z,7.40
2018-04-27T18:40:46.152Z,7.30
2018-04-27T18:43:13.796Z,7.40
2018-04-27T18:45:41.427Z,7.40
2018-04-27T18:48:15.751Z,7.40
2018-04-27T18:50:43.476Z,7.40
2018-04-27T18:53:11.071Z,7.40
2018-04-27T18:55:38.735Z,7.40
2018-04-27T18:58:06.435Z,7.40
2018-04-27T19:00:37.839Z,7.40
2018-04-27T19:03:06.476Z,7.40
2018-04-27T19:05:34.850Z,7.30
2018-04-27T19:08:02.507Z,7.30
2018-04-27T21:16:06.939Z,7.00
2018-04-27T21:18:34.802Z,6.90
2018-04-27T21:21:02.668Z,6.90
2018-04-27T21:23:30.534Z,6.80
2018-04-27T21:25:58.293Z,6.80
2018-04-27T21:28:38.343Z,6.70
2018-04-27T21:31:07.131Z,6.70
2018-04-27T21:33:52.613Z,6.70
2018-04-27T21:36:20.475Z,6.60
2018-04-27T21:39:06.880Z,6.70
2018-04-27T21:44:47.911Z,6.60
2018-04-27T21:47:26.182Z,6.60
2018-04-27T21:49:54.913Z,6.50
2018-04-27T21:52:28.257Z,6.60
2018-04-27T21:54:57.044Z,6.60
2018-04-27T21:57:46.314Z,6.60
2018-04-27T22:00:14.998Z,6.70
2018-04-27T22:02:54.747Z,6.70
2018-04-27T22:05:48.106Z,6.70
2018-04-27T22:08:42.560Z,6.80
2018-04-27T22:11:11.176Z,6.80
2018-04-27T22:13:39.044Z,6.70
2018-04-27T22:16:14.791Z,6.80
2018-04-27T22:18:42.742Z,6.80
2018-04-27T22:21:10.625Z,6.80
2018-04-27T22:23:39.412Z,6.80
2018-04-27T22:26:11.989Z,6.70
2018-04-27T22:28:41.698Z,6.70
2018-04-27T22:31:09.460Z,6.70
2018-04-27T22:33:39.067Z,6.70
2018-04-27T22:36:26.697Z,6.60
2018-04-27T22:39:09.306Z,6.70
2018-04-27T22:41:37.069Z,6.70
2018-04-27T22:44:07.842Z,6.70
2018-04-27T22:46:36.487Z,6.80
2018-04-27T22:49:04.386Z,6.70
2018-04-27T22:51:42.560Z,6.80
2018-04-27T22:54:12.271Z,6.80
2018-04-27T22:56:54.992Z,6.80
2018-04-27T22:59:28.521Z,6.80
2018-04-27T23:02:14.675Z,6.80
2018-04-27T23:04:42.547Z,6.70
2018-04-27T23:07:17.166Z,6.70
2018-04-27T23:09:44.909Z,6.70
2018-04-27T23:12:12.609Z,6.60
2018-04-27T23:14:40.341Z,6.60
2018-04-27T23:17:13.647Z,6.60
2018-04-27T23:19:45.300Z,6.60
2018-04-27T23:22:25.761Z,6.60
2018-04-27T23:24:54.282Z,6.60
2018-04-27T23:27:22.926Z,6.50
2018-04-27T23:29:50.791Z,6.50
2018-04-27T23:32:18.657Z,6.50
2018-04-27T23:34:46.526Z,6.50
2018-04-27T23:37:14.325Z,6.50
2018-04-27T23:39:42.809Z,6.50
2018-04-27T23:42:11.450Z,6.50
2018-04-27T23:44:39.185Z,6.50
2018-04-27T23:47:07.079Z,6.60
2018-04-27T23:49:34.793Z,6.70
2018-04-27T23:52:03.305Z,6.80
2018-04-27T23:54:31.042Z,6.70
2018-04-27T23:57:01.349Z,6.60
2018-04-27T23:59:44.725Z,6.50
